Time;durP1;ratioP1;P1;durP2;ratioP2;P2;SDS_P1;SDS_P2;PMS_P1;PMS_P2;Temp;Humidity;BMP_temperature;BMP_pressure;BME280_temperature;BME280_humidity;BME280_pressure;Samples;Min_cycle;Max_cycle;Signal;HPM_P1;HPM_P2
2022/08/23 00:01:16;;;;;;;6.93;1.85;;;;;;;;;;6091967;23;20347;-82
2022/08/23 00:03:42;;;;;;;4.50;2.00;;;;;;;;;;6117346;23;20112;-82
2022/08/23 00:06:13;;;;;;;5.60;2.15;;;;;;;;;;6091598;23;20415;-82
2022/08/23 00:08:39;;;;;;;4.90;1.83;;;;;;;;;;6116882;23;20021;-82
2022/08/23 00:11:05;;;;;;;4.28;1.80;;;;;;;;;;6116224;23;20022;-82
2022/08/23 00:13:31;;;;;;;4.97;1.92;;;;;;;;;;6093089;23;20451;-83
2022/08/23 00:15:56;;;;;;;3.28;1.60;;;;;;;;;;6090613;23;20025;-82
2022/08/23 00:18:23;;;;;;;3.83;1.70;;;;;;;;;;6092958;23;20401;-81
2022/08/23 00:20:49;;;;;;;4.95;1.70;;;;;;;;;;6115761;23;20021;-82
2022/08/23 00:23:14;;;;;;;3.67;1.73;;;;;;;;;;6117766;23;20092;-82
2022/08/23 00:25:40;;;;;;;3.95;1.73;;;;;;;;;;6115877;23;20018;-82
2022/08/23 00:28:07;;;;;;;5.22;2.10;;;;;;;;;;6117379;23;20025;-82
2022/08/23 00:30:32;;;;;;;4.60;1.90;;;;;;;;;;6116228;23;20018;-82
2022/08/23 00:32:59;;;;;;;4.85;1.83;;;;;;;;;;6092385;23;20316;-82
2022/08/23 00:35:25;;;;;;;5.53;1.85;;;;;;;;;;6115501;23;20057;-81
2022/08/23 00:37:50;;;;;;;5.13;1.88;;;;;;;;;;6116679;23;20029;-82
2022/08/23 00:40:17;;;;;;;4.63;2.03;;;;;;;;;;6115827;23;20021;-82
2022/08/23 00:48:25;;;;;;;3.88;1.92;;;;;;;;;;6116277;23;20112;-81
2022/08/23 00:51:23;;;;;;;5.05;2.15;;;;;;;;;;6091634;23;20033;-82
2022/08/23 00:53:52;;;;;;;6.85;2.40;;;;;;;;;;6086537;23;20341;-82
2022/08/23 00:56:21;;;;;;;5.43;2.30;;;;;;;;;;6091633;23;20085;-81
2022/08/23 00:58:47;;;;;;;4.25;2.20;;;;;;;;;;6069143;23;20018;-81
2022/08/23 01:01:13;;;;;;;5.20;2.25;;;;;;;;;;6067232;23;20021;-81
2022/08/23 01:03:41;;;;;;;4.45;2.50;;;;;;;;;;6092385;23;20346;-82
2022/08/23 01:06:15;;;;;;;5.45;2.58;;;;;;;;;;6066809;23;21737;-82
2022/08/23 01:08:52;;;;;;;5.18;2.45;;;;;;;;;;6068560;23;20014;-81
2022/08/23 01:11:31;;;;;;;7.70;2.38;;;;;;;;;;6066821;23;20014;-80
2022/08/23 01:14:04;;;;;;;4.47;2.30;;;;;;;;;;6069552;23;20017;-82
2022/08/23 01:16:34;;;;;;;4.93;2.30;;;;;;;;;;6090981;23;20017;-81
2022/08/23 01:19:01;;;;;;;5.75;2.60;;;;;;;;;;6068026;23;20458;-81
2022/08/23 01:21:31;;;;;;;5.85;2.40;;;;;;;;;;6066883;23;20125;-82
2022/08/23 01:23:59;;;;;;;4.72;2.45;;;;;;;;;;6117978;23;20366;-82
2022/08/23 01:26:26;;;;;;;7.45;2.40;;;;;;;;;;6066727;23;20033;-82
2022/08/23 01:28:53;;;;;;;5.82;2.60;;;;;;;;;;6091982;23;20016;-82
2022/08/23 01:31:19;;;;;;;6.40;2.67;;;;;;;;;;6066814;23;20018;-82
2022/08/23 01:33:48;;;;;;;5.30;2.73;;;;;;;;;;6068623;23;20021;-81
2022/08/23 01:36:15;;;;;;;5.65;3.13;;;;;;;;;;6091189;23;20124;-82
2022/08/23 01:38:40;;;;;;;6.35;3.58;;;;;;;;;;6092186;23;20013;-82
2022/08/23 01:41:06;;;;;;;7.28;3.40;;;;;;;;;;6090787;23;20442;-81
2022/08/23 01:43:32;;;;;;;9.88;4.20;;;;;;;;;;6068367;23;20020;-83
2022/08/23 01:46:06;;;;;;;7.20;3.33;;;;;;;;;;6091212;23;20097;-82
2022/08/23 01:48:31;;;;;;;7.00;3.30;;;;;;;;;;6069544;23;20382;-83
2022/08/23 01:50:57;;;;;;;7.00;3.50;;;;;;;;;;6090578;23;20024;-81
2022/08/23 01:53:22;;;;;;;5.35;3.08;;;;;;;;;;6091809;23;20014;-81
2022/08/23 01:55:47;;;;;;;5.55;2.75;;;;;;;;;;6091232;23;20021;-81
2022/08/23 01:58:13;;;;;;;6.70;2.75;;;;;;;;;;6092107;23;20017;-81
2022/08/23 02:00:41;;;;;;;4.75;2.60;;;;;;;;;;6091170;23;20014;-82
2022/08/23 02:03:07;;;;;;;6.63;2.70;;;;;;;;;;6116471;23;20041;-81
2022/08/23 02:05:35;;;;;;;6.57;3.03;;;;;;;;;;6115265;23;20462;-82
2022/08/23 02:08:59;;;;;;;6.22;2.67;;;;;;;;;;6116384;23;20018;-82
2022/08/23 02:10:46;;;;;;;7.22;2.70;;;;;;;;;;6116763;23;20025;-81
2022/08/23 02:13:12;;;;;;;5.40;2.50;;;;;;;;;;6091547;23;20014;-81
2022/08/23 02:15:41;;;;;;;3.67;2.17;;;;;;;;;;6090629;23;20020;-81
2022/08/23 02:18:07;;;;;;;4.75;2.08;;;;;;;;;;6116569;23;20044;-80
2022/08/23 02:20:32;;;;;;;7.15;2.30;;;;;;;;;;6090974;23;20018;-81
2022/08/23 02:22:57;;;;;;;5.55;2.30;;;;;;;;;;6091764;23;20036;-81
2022/08/23 02:25:23;;;;;;;8.38;2.42;;;;;;;;;;6115022;23;20014;-80
2022/08/23 02:27:48;;;;;;;4.80;2.20;;;;;;;;;;6116396;23;20492;-81
2022/08/23 02:30:14;;;;;;;5.75;2.47;;;;;;;;;;6115711;23;20454;-81
2022/08/23 02:32:41;;;;;;;4.82;2.22;;;;;;;;;;6115857;23;20021;-81
2022/08/23 02:35:06;;;;;;;4.78;2.10;;;;;;;;;;6115777;23;20025;-81
2022/08/23 02:37:32;;;;;;;7.10;2.30;;;;;;;;;;6090897;23;20010;-81
2022/08/23 02:39:58;;;;;;;5.75;2.50;;;;;;;;;;6117013;23;20018;-81
2022/08/23 02:42:23;;;;;;;3.97;2.00;;;;;;;;;;6092594;23;20021;-81
2022/08/23 02:44:49;;;;;;;7.05;2.35;;;;;;;;;;6118028;23;20079;-81
2022/08/23 02:47:14;;;;;;;5.18;2.20;;;;;;;;;;6117480;23;20073;-81
2022/08/23 02:49:40;;;;;;;4.28;1.70;;;;;;;;;;6117493;23;20028;-81
2022/08/23 02:52:06;;;;;;;7.07;2.30;;;;;;;;;;6118635;23;20029;-81
2022/08/23 02:54:32;;;;;;;5.90;2.67;;;;;;;;;;6118310;23;20580;-81
2022/08/23 02:56:58;;;;;;;4.40;2.00;;;;;;;;;;6092635;23;20018;-81
2022/08/23 02:59:23;;;;;;;6.78;2.30;;;;;;;;;;6093796;23;20525;-81
2022/08/23 03:01:49;;;;;;;6.72;2.33;;;;;;;;;;6117719;23;20010;-83
2022/08/23 03:04:14;;;;;;;6.32;1.90;;;;;;;;;;6120452;23;20025;-83
2022/08/23 03:06:39;;;;;;;6.55;2.33;;;;;;;;;;6094251;23;20014;-83
2022/08/23 03:09:06;;;;;;;6.13;2.35;;;;;;;;;;6095896;23;20062;-83
2022/08/23 03:11:32;;;;;;;5.60;2.10;;;;;;;;;;6094795;23;20023;-83
2022/08/23 03:13:57;;;;;;;5.32;2.00;;;;;;;;;;6120499;23;20017;-83
2022/08/23 03:16:23;;;;;;;6.38;1.90;;;;;;;;;;6094292;23;20466;-83
2022/08/23 03:18:49;;;;;;;4.80;2.20;;;;;;;;;;6095209;23;20045;-82
2022/08/23 03:21:16;;;;;;;4.45;2.03;;;;;;;;;;6095276;23;20068;-83
2022/08/23 03:23:41;;;;;;;3.75;1.90;;;;;;;;;;6119860;23;20025;-84
2022/08/23 03:26:08;;;;;;;6.45;2.38;;;;;;;;;;6118434;23;20017;-83
2022/08/23 03:28:35;;;;;;;6.78;2.20;;;;;;;;;;6094568;23;20017;-83
2022/08/23 03:31:00;;;;;;;4.60;2.40;;;;;;;;;;6118225;23;20089;-83
2022/08/23 03:33:26;;;;;;;6.40;2.50;;;;;;;;;;6094341;23;20045;-83
2022/08/23 03:35:51;;;;;;;6.45;2.50;;;;;;;;;;6092528;23;20100;-82
2022/08/23 03:38:18;;;;;;;6.35;2.13;;;;;;;;;;6094596;23;20104;-82
2022/08/23 03:40:44;;;;;;;6.72;2.42;;;;;;;;;;6094193;23;20064;-81
2022/08/23 03:43:10;;;;;;;9.32;2.50;;;;;;;;;;6094639;23;20014;-82
2022/08/23 03:45:36;;;;;;;5.63;2.13;;;;;;;;;;6093815;23;20097;-82
2022/08/23 03:48:02;;;;;;;6.07;2.25;;;;;;;;;;6117646;23;20052;-82
2022/08/23 03:50:27;;;;;;;6.85;2.67;;;;;;;;;;6067850;23;20018;-82
2022/08/23 03:52:53;;;;;;;6.50;2.42;;;;;;;;;;6093166;23;20013;-82
2022/08/23 03:55:18;;;;;;;4.85;2.30;;;;;;;;;;6044307;23;20076;-81
2022/08/23 03:57:44;;;;;;;6.40;2.60;;;;;;;;;;6070215;23;20041;-82
2022/08/23 04:00:11;;;;;;;6.13;2.85;;;;;;;;;;6069628;23;20041;-82
2022/08/23 04:02:37;;;;;;;6.07;2.42;;;;;;;;;;6068319;23;21452;-81
2022/08/23 04:05:03;;;;;;;4.55;2.42;;;;;;;;;;6093248;23;20085;-82
2022/08/23 04:07:30;;;;;;;4.78;2.50;;;;;;;;;;6068415;23;20022;-82
2022/08/23 04:09:56;;;;;;;8.23;2.65;;;;;;;;;;6069262;23;20028;-82
2022/08/23 04:12:22;;;;;;;6.20;2.50;;;;;;;;;;6093754;23;20518;-82
2022/08/23 04:14:47;;;;;;;7.97;2.58;;;;;;;;;;6070758;23;20014;-82
2022/08/23 04:17:13;;;;;;;5.82;2.53;;;;;;;;;;6093965;23;20081;-83
2022/08/23 04:19:39;;;;;;;7.93;2.70;;;;;;;;;;6070225;23;20017;-83
2022/08/23 04:22:04;;;;;;;7.13;3.35;;;;;;;;;;6069038;23;20033;-82
2022/08/23 04:24:30;;;;;;;6.85;3.10;;;;;;;;;;6070570;23;20097;-83
2022/08/23 04:26:55;;;;;;;8.10;3.45;;;;;;;;;;6068734;23;20535;-82
2022/08/23 04:29:21;;;;;;;5.68;2.90;;;;;;;;;;6070715;23;20014;-82
2022/08/23 04:31:47;;;;;;;5.55;2.92;;;;;;;;;;6069549;23;20014;-82
2022/08/23 04:34:12;;;;;;;6.65;3.15;;;;;;;;;;6069968;23;20018;-82
2022/08/23 04:36:41;;;;;;;6.32;3.13;;;;;;;;;;6068275;23;20161;-83
2022/08/23 04:39:07;;;;;;;7.63;3.08;;;;;;;;;;6069903;23;20018;-82
2022/08/23 04:44:17;;;;;;;8.10;3.28;;;;;;;;;;6097584;23;20092;-80
2022/08/23 04:46:42;;;;;;;7.90;3.42;;;;;;;;;;6091098;23;20022;-79
2022/08/23 04:49:09;;;;;;;7.80;3.40;;;;;;;;;;6077544;23;20029;-80
2022/08/23 04:51:34;;;;;;;10.30;3.45;;;;;;;;;;6091083;23;20021;-79
2022/08/23 04:54:00;;;;;;;6.43;3.22;;;;;;;;;;6091846;23;20022;-79
2022/08/23 04:56:27;;;;;;;8.43;3.40;;;;;;;;;;6115427;23;20014;-79
2022/08/23 04:58:52;;;;;;;8.25;3.10;;;;;;;;;;6091944;23;20477;-80
2022/08/23 05:01:18;;;;;;;10.13;3.33;;;;;;;;;;6091046;23;20014;-79
2022/08/23 05:03:44;;;;;;;8.30;2.85;;;;;;;;;;6092036;23;20014;-79
2022/08/23 05:06:09;;;;;;;6.47;3.83;;;;;;;;;;6115739;23;20085;-79
2022/08/23 05:08:34;;;;;;;8.02;3.13;;;;;;;;;;6091969;23;20029;-79
2022/08/23 05:11:02;;;;;;;6.45;3.00;;;;;;;;;;6115350;23;20014;-79
2022/08/23 05:13:28;;;;;;;7.30;3.70;;;;;;;;;;6116895;23;20395;-79
2022/08/23 05:15:54;;;;;;;6.85;3.22;;;;;;;;;;6090330;23;20022;-79
2022/08/23 05:18:19;;;;;;;7.30;3.20;;;;;;;;;;6116022;23;20076;-79
2022/08/23 05:20:45;;;;;;;7.88;3.42;;;;;;;;;;6115700;23;20022;-79
2022/08/23 05:23:10;;;;;;;6.78;3.20;;;;;;;;;;6091403;23;20018;-80
2022/08/23 05:25:51;;;;;;;6.47;3.20;;;;;;;;;;6115295;23;20125;-79
2022/08/23 05:28:22;;;;;;;8.30;3.30;;;;;;;;;;6095168;23;20068;-79
2022/08/23 05:30:59;;;;;;;6.88;3.22;;;;;;;;;;6117081;23;20093;-79
2022/08/23 05:33:28;;;;;;;5.82;2.97;;;;;;;;;;6117686;23;20014;-79
2022/08/23 05:35:54;;;;;;;9.10;3.20;;;;;;;;;;6115280;23;20442;-79
2022/08/23 05:38:20;;;;;;;7.00;3.10;;;;;;;;;;6116546;23;20076;-79
2022/08/23 05:40:54;;;;;;;6.63;2.90;;;;;;;;;;6090982;23;20446;-79
2022/08/23 05:43:20;;;;;;;6.38;3.00;;;;;;;;;;6091575;23;20010;-79
2022/08/23 05:45:46;;;;;;;8.60;3.15;;;;;;;;;;6115496;23;20409;-80
2022/08/23 05:48:12;;;;;;;7.57;2.85;;;;;;;;;;6115271;23;20093;-80
2022/08/23 05:50:38;;;;;;;8.02;3.40;;;;;;;;;;6049539;23;20435;-82
2022/08/23 05:53:07;;;;;;;6.72;3.03;;;;;;;;;;6070613;23;20049;-83
2022/08/23 05:55:32;;;;;;;7.38;3.10;;;;;;;;;;6070034;23;20418;-83
2022/08/23 05:57:58;;;;;;;5.60;2.70;;;;;;;;;;6070707;23;20022;-83
2022/08/23 06:00:24;;;;;;;6.97;2.85;;;;;;;;;;6068896;23;20081;-83
2022/08/23 06:02:50;;;;;;;8.32;2.83;;;;;;;;;;6070732;23;20045;-83
2022/08/23 06:05:15;;;;;;;5.95;2.70;;;;;;;;;;6094372;23;20010;-83
2022/08/23 06:07:41;;;;;;;6.50;2.67;;;;;;;;;;6094799;23;20486;-83
2022/08/23 06:10:07;;;;;;;6.50;2.90;;;;;;;;;;6070091;23;20041;-83
2022/08/23 06:12:33;;;;;;;8.30;3.10;;;;;;;;;;6093095;23;20025;-83
2022/08/23 06:14:59;;;;;;;5.65;2.63;;;;;;;;;;6070031;23;20021;-83
2022/08/23 06:17:25;;;;;;;8.40;3.22;;;;;;;;;;6069464;23;20021;-83
2022/08/23 06:19:50;;;;;;;6.65;3.15;;;;;;;;;;6070797;23;20010;-83
2022/08/23 06:22:16;;;;;;;6.82;2.53;;;;;;;;;;6094081;23;20537;-83
2022/08/23 06:24:41;;;;;;;5.25;2.72;;;;;;;;;;6069934;23;20113;-83
2022/08/23 06:27:07;;;;;;;6.90;3.00;;;;;;;;;;6068838;23;20037;-83
2022/08/23 06:29:32;;;;;;;7.15;2.75;;;;;;;;;;6069460;23;20020;-82
2022/08/23 06:31:58;;;;;;;6.93;3.03;;;;;;;;;;6091610;23;20525;-83
2022/08/23 06:34:23;;;;;;;7.45;2.47;;;;;;;;;;6069517;23;20009;-83
2022/08/23 06:36:51;;;;;;;7.75;2.42;;;;;;;;;;6092259;23;20157;-84
2022/08/23 06:39:17;;;;;;;5.20;2.80;;;;;;;;;;6070872;23;20024;-83
2022/08/23 06:41:44;;;;;;;5.35;2.53;;;;;;;;;;6054510;23;20048;-84
2022/08/23 06:44:10;;;;;;;6.38;2.63;;;;;;;;;;6070286;23;20006;-84
2022/08/23 06:46:37;;;;;;;6.57;2.78;;;;;;;;;;6069224;23;20014;-84
2022/08/23 06:49:04;;;;;;;6.45;2.85;;;;;;;;;;6078451;23;20101;-84
2022/08/23 06:51:31;;;;;;;8.25;2.47;;;;;;;;;;6093351;23;20014;-83
2022/08/23 06:53:58;;;;;;;7.35;2.45;;;;;;;;;;6118756;23;20411;-83
2022/08/23 06:56:26;;;;;;;9.38;2.88;;;;;;;;;;6093594;23;20028;-83
2022/08/23 06:58:52;;;;;;;7.10;2.63;;;;;;;;;;6094947;23;20010;-83
2022/08/23 07:01:22;;;;;;;6.65;3.13;;;;;;;;;;6118387;23;20017;-83
2022/08/23 07:03:55;;;;;;;8.93;2.42;;;;;;;;;;6094395;23;20509;-83
2022/08/23 07:06:24;;;;;;;6.90;2.53;;;;;;;;;;6093011;23;20025;-84
2022/08/23 07:08:50;;;;;;;7.07;2.50;;;;;;;;;;6094222;23;20026;-83
2022/08/23 07:11:16;;;;;;;5.22;2.20;;;;;;;;;;6093841;23;20102;-84
2022/08/23 07:13:42;;;;;;;6.38;2.63;;;;;;;;;;6095021;23;20097;-83
2022/08/23 07:16:07;;;;;;;6.90;2.45;;;;;;;;;;6079833;23;20014;-84
2022/08/23 07:18:33;;;;;;;5.38;2.22;;;;;;;;;;6118942;23;20010;-83
2022/08/23 07:21:01;;;;;;;7.72;2.58;;;;;;;;;;6117338;23;20018;-84
2022/08/23 07:23:32;;;;;;;7.32;2.40;;;;;;;;;;6093653;23;20014;-83
2022/08/23 07:25:58;;;;;;;4.53;2.10;;;;;;;;;;6095101;23;20032;-83
2022/08/23 07:28:24;;;;;;;4.60;2.03;;;;;;;;;;6096378;23;20029;-83
2022/08/23 07:30:50;;;;;;;7.95;2.60;;;;;;;;;;6094826;23;20252;-84
2022/08/23 07:33:16;;;;;;;6.65;2.30;;;;;;;;;;6121062;23;20097;-84
2022/08/23 07:35:47;;;;;;;5.18;2.20;;;;;;;;;;6119468;23;20070;-83
2022/08/23 07:38:12;;;;;;;4.70;1.92;;;;;;;;;;6120496;23;20446;-83
2022/08/23 07:40:38;;;;;;;6.57;2.22;;;;;;;;;;6092944;23;20029;-84
2022/08/23 07:43:04;;;;;;;4.90;2.33;;;;;;;;;;6119784;23;20401;-83
2022/08/23 07:45:29;;;;;;;8.45;2.40;;;;;;;;;;6094965;23;20092;-84
2022/08/23 07:47:55;;;;;;;6.97;2.30;;;;;;;;;;6096118;23;20738;-83
2022/08/23 07:50:21;;;;;;;6.70;2.15;;;;;;;;;;6094406;23;20034;-83
2022/08/23 07:52:46;;;;;;;6.10;2.15;;;;;;;;;;6096544;23;20037;-83
2022/08/23 07:55:12;;;;;;;7.03;2.00;;;;;;;;;;6095294;23;20022;-82
2022/08/23 07:57:40;;;;;;;7.90;2.90;;;;;;;;;;6119176;23;20156;-83
2022/08/23 08:00:06;;;;;;;7.22;2.10;;;;;;;;;;6095401;23;20046;-84
2022/08/23 08:02:32;;;;;;;6.47;2.38;;;;;;;;;;6120110;23;20370;-82
2022/08/23 08:04:57;;;;;;;6.60;2.05;;;;;;;;;;6094286;23;20021;-83
2022/08/23 08:07:23;;;;;;;5.82;2.30;;;;;;;;;;6095473;23;20104;-85
2022/08/23 08:09:48;;;;;;;7.72;2.65;;;;;;;;;;6120215;23;20025;-84
2022/08/23 08:12:14;;;;;;;8.75;2.33;;;;;;;;;;6095769;23;20022;-84
2022/08/23 08:14:40;;;;;;;7.07;2.00;;;;;;;;;;6120541;23;20022;-84
2022/08/23 08:17:06;;;;;;;8.35;2.10;;;;;;;;;;6118955;23;20402;-84
2022/08/23 08:19:31;;;;;;;7.80;2.05;;;;;;;;;;6119664;23;20018;-84
2022/08/23 08:21:56;;;;;;;4.80;1.80;;;;;;;;;;6094978;23;20014;-84
2022/08/23 08:24:22;;;;;;;6.18;1.85;;;;;;;;;;6095887;23;20093;-83
2022/08/23 08:26:48;;;;;;;5.53;2.30;;;;;;;;;;6095389;23;20472;-84
2022/08/23 08:29:14;;;;;;;5.10;1.77;;;;;;;;;;6119015;23;20022;-84
2022/08/23 08:31:41;;;;;;;4.60;1.80;;;;;;;;;;6093949;23;20319;-84
2022/08/23 08:34:10;;;;;;;5.82;2.10;;;;;;;;;;6095658;23;20014;-83
2022/08/23 08:36:47;;;;;;;4.57;2.00;;;;;;;;;;6093041;23;20129;-85
2022/08/23 08:39:17;;;;;;;6.93;1.70;;;;;;;;;;6119621;23;20010;-83
2022/08/23 08:41:54;;;;;;;4.18;1.83;;;;;;;;;;6094271;23;20104;-83
2022/08/23 08:44:29;;;;;;;5.22;1.33;;;;;;;;;;6094591;23;20443;-84
2022/08/23 08:46:56;;;;;;;5.72;1.63;;;;;;;;;;6118638;23;20068;-84
2022/08/23 08:49:42;;;;;;;4.50;1.60;;;;;;;;;;6080270;23;20101;-85
2022/08/23 08:52:44;;;;;;;4.53;1.65;;;;;;;;;;6094140;23;20021;-83
2022/08/23 08:55:10;;;;;;;4.10;1.80;;;;;;;;;;6087469;23;20342;-83
2022/08/23 08:57:41;;;;;;;3.92;1.40;;;;;;;;;;6093413;23;20065;-84
2022/08/23 09:00:13;;;;;;;6.35;1.48;;;;;;;;;;6094410;23;20018;-83
2022/08/23 09:02:39;;;;;;;6.32;1.90;;;;;;;;;;6094948;23;20510;-83
2022/08/23 09:05:10;;;;;;;5.65;1.70;;;;;;;;;;6118635;23;20068;-84
2022/08/23 09:07:43;;;;;;;5.15;1.90;;;;;;;;;;6093333;23;20017;-84
2022/08/23 09:10:15;;;;;;;5.35;1.58;;;;;;;;;;6118171;23;20142;-84
2022/08/23 09:12:59;;;;;;;4.10;1.20;;;;;;;;;;6118894;23;20014;-83
2022/08/23 09:15:33;;;;;;;4.65;1.45;;;;;;;;;;6118177;23;20010;-84
2022/08/23 09:18:10;;;;;;;4.80;1.60;;;;;;;;;;6119041;23;20018;-84
2022/08/23 09:20:37;;;;;;;4.17;1.50;;;;;;;;;;6117973;23;20015;-83
2022/08/23 09:23:10;;;;;;;5.22;1.80;;;;;;;;;;6095334;23;20022;-83
2022/08/23 09:25:36;;;;;;;6.90;1.67;;;;;;;;;;6061829;23;20076;-85
2022/08/23 09:28:01;;;;;;;5.55;1.40;;;;;;;;;;6107309;23;20026;-84
2022/08/23 09:31:06;;;;;;;3.75;1.30;;;;;;;;;;6093132;23;20013;-86
2022/08/23 09:33:48;;;;;;;4.03;1.40;;;;;;;;;;5942721;23;20016;-84
2022/08/23 09:36:15;;;;;;;3.72;1.48;;;;;;;;;;5989567;23;20451;-84
2022/08/23 09:38:56;;;;;;;4.45;1.48;;;;;;;;;;6002518;23;20026;-84
2022/08/23 09:41:35;;;;;;;4.72;1.50;;;;;;;;;;5929106;23;20016;-85
2022/08/23 09:44:08;;;;;;;4.47;1.52;;;;;;;;;;5966736;23;20027;-83
2022/08/23 09:46:36;;;;;;;4.80;1.38;;;;;;;;;;5977782;23;20046;-84
2022/08/23 09:49:20;;;;;;;4.53;1.42;;;;;;;;;;5942662;23;20027;-84
2022/08/23 09:51:49;;;;;;;3.92;1.23;;;;;;;;;;5990560;23;20483;-83
2022/08/23 09:54:34;;;;;;;4.50;1.50;;;;;;;;;;5944983;23;20571;-85
2022/08/23 09:57:25;;;;;;;4.45;1.42;;;;;;;;;;5964798;23;20449;-84
2022/08/23 10:00:13;;;;;;;4.43;1.48;;;;;;;;;;5946568;23;20028;-85
2022/08/23 10:02:39;;;;;;;3.97;1.38;;;;;;;;;;5973859;23;20599;-84
2022/08/23 10:05:27;;;;;;;2.63;0.95;;;;;;;;;;6042150;23;20014;-84
2022/08/23 10:07:55;;;;;;;3.90;1.38;;;;;;;;;;6093757;23;20018;-84
2022/08/23 10:10:24;;;;;;;4.28;1.17;;;;;;;;;;6093274;23;20457;-84
2022/08/23 10:12:50;;;;;;;6.40;1.70;;;;;;;;;;6118720;23;20014;-85
2022/08/23 10:15:16;;;;;;;4.68;1.42;;;;;;;;;;6093274;23;20338;-84
2022/08/23 10:17:53;;;;;;;4.55;1.33;;;;;;;;;;6117338;23;20014;-84
2022/08/23 10:20:34;;;;;;;4.75;1.50;;;;;;;;;;6093222;23;20021;-84
2022/08/23 10:23:18;;;;;;;4.63;1.60;;;;;;;;;;6118667;23;20061;-84
2022/08/23 10:25:52;;;;;;;4.45;1.30;;;;;;;;;;6093410;23;20014;-84
2022/08/23 10:31:46;;;;;;;4.28;1.30;;;;;;;;;;6118946;23;20335;-85
2022/08/23 10:34:18;;;;;;;4.50;1.75;;;;;;;;;;6118336;23;20165;-84
2022/08/23 10:36:58;;;;;;;5.68;1.58;;;;;;;;;;6119024;23;20323;-85
2022/08/23 10:39:26;;;;;;;5.72;1.60;;;;;;;;;;6118787;23;20018;-86
2022/08/23 10:42:01;;;;;;;6.28;1.90;;;;;;;;;;6117010;23;20067;-85
2022/08/23 10:45:15;;;;;;;2.75;1.20;;;;;;;;;;6094735;23;20017;-85
2022/08/23 10:47:52;;;;;;;6.18;1.88;;;;;;;;;;6092372;23;20025;-84
2022/08/23 10:50:21;;;;;;;;;;;;;;;;;;6119853;23;20346;-84
2022/08/23 10:53:25;;;;;;;4.82;1.77;;;;;;;;;;6094535;23;19935;-84
2022/08/23 10:56:03;;;;;;;4.38;1.60;;;;;;;;;;6048764;23;20014;-84
2022/08/23 10:58:44;;;;;;;4.63;1.73;;;;;;;;;;6071734;23;20037;-83
2022/08/23 11:01:16;;;;;;;5.65;1.75;;;;;;;;;;6069868;23;20104;-84
2022/08/23 11:03:55;;;;;;;4.03;1.88;;;;;;;;;;6070921;23;20513;-83
2022/08/23 11:06:26;;;;;;;5.07;1.70;;;;;;;;;;6070466;23;20346;-84
2022/08/23 11:09:03;;;;;;;4.50;1.40;;;;;;;;;;6095064;23;22302;-84
2022/08/23 11:11:46;;;;;;;;;;;;;;;;;;6095195;23;20018;-84
2022/08/23 11:14:25;;;;;;;4.10;1.58;;;;;;;;;;6071695;23;19976;-84
2022/08/23 11:16:57;;;;;;;5.43;1.77;;;;;;;;;;6070191;23;20069;-85
2022/08/23 11:20:11;;;;;;;5.13;1.65;;;;;;;;;;6071571;23;20014;-85
2022/08/23 11:22:55;;;;;;;4.57;2.00;;;;;;;;;;6090906;23;20025;-85
2022/08/23 11:25:20;;;;;;;4.45;1.77;;;;;;;;;;6095052;23;20473;-85
2022/08/23 11:27:46;;;;;;;3.65;1.40;;;;;;;;;;6121940;23;20018;-85
2022/08/23 11:30:45;;;;;;;2.95;1.30;;;;;;;;;;6070871;23;20476;-86
2022/08/23 11:33:33;;;;;;;3.10;1.10;;;;;;;;;;5974206;23;20024;-85
2022/08/23 11:36:08;;;;;;;4.65;1.40;;;;;;;;;;6069719;23;20390;-85
2022/08/23 11:38:42;;;;;;;2.97;1.33;;;;;;;;;;6095015;23;20095;-85
2022/08/23 11:41:16;;;;;;;6.32;1.40;;;;;;;;;;6093770;23;20466;-84
2022/08/23 11:43:44;;;;;;;3.83;1.02;;;;;;;;;;6071764;23;20010;-85
2022/08/23 11:46:15;;;;;;;5.25;1.33;;;;;;;;;;6070517;23;20018;-86
2022/08/23 11:48:42;;;;;;;4.90;1.25;;;;;;;;;;6099382;23;20080;-82
2022/08/23 11:51:26;;;;;;;4.70;1.10;;;;;;;;;;6093915;23;20109;-82
2022/08/23 11:53:52;;;;;;;3.40;1.13;;;;;;;;;;6119496;23;20025;-83
2022/08/23 11:56:48;;;;;;;3.03;1.00;;;;;;;;;;6118492;23;20017;-83
2022/08/23 11:59:36;;;;;;;3.78;1.20;;;;;;;;;;6120540;23;20013;-84
2022/08/23 12:02:38;;;;;;;2.85;1.05;;;;;;;;;;6118525;23;20028;-84
2022/08/23 12:05:22;;;;;;;3.17;1.20;;;;;;;;;;6119661;23;20017;-83
2022/08/23 12:08:00;;;;;;;2.80;1.40;;;;;;;;;;6119307;23;20477;-82
2022/08/23 12:10:41;;;;;;;3.67;1.33;;;;;;;;;;6118312;23;20088;-83
2022/08/23 12:13:18;;;;;;;3.97;1.10;;;;;;;;;;6117939;23;20033;-84
2022/08/23 12:16:08;;;;;;;3.13;1.30;;;;;;;;;;6119596;23;20474;-83
2022/08/23 12:18:38;;;;;;;5.03;1.50;;;;;;;;;;6094623;23;20010;-84
2022/08/23 12:21:05;;;;;;;3.35;1.27;;;;;;;;;;6093390;23;20314;-83
2022/08/23 12:23:43;;;;;;;3.42;1.40;;;;;;;;;;6095407;23;20479;-84
2022/08/23 12:26:13;;;;;;;4.05;1.63;;;;;;;;;;6093493;23;20104;-82
2022/08/23 12:28:45;;;;;;;4.45;1.48;;;;;;;;;;6094954;23;20067;-82
2022/08/23 12:31:19;;;;;;;4.10;1.40;;;;;;;;;;6104147;23;20100;-81
2022/08/23 12:33:50;;;;;;;3.92;1.50;;;;;;;;;;6094196;23;20021;-82
2022/08/23 12:36:31;;;;;;;4.65;1.60;;;;;;;;;;6117705;23;20342;-82
2022/08/23 12:39:08;;;;;;;4.93;1.70;;;;;;;;;;6120118;23;20018;-81
2022/08/23 12:41:58;;;;;;;3.50;1.60;;;;;;;;;;6092820;23;20018;-82
2022/08/23 12:44:27;;;;;;;5.30;1.50;;;;;;;;;;6093998;23;20042;-83
2022/08/23 12:46:52;;;;;;;4.18;1.67;;;;;;;;;;6092721;23;20470;-83
2022/08/23 12:49:23;;;;;;;5.30;1.50;;;;;;;;;;6093828;23;20029;-82
2022/08/23 12:51:50;;;;;;;3.53;1.50;;;;;;;;;;6116377;23;20517;-83
2022/08/23 12:54:19;;;;;;;3.65;1.60;;;;;;;;;;6093443;23;20018;-82
2022/08/23 12:56:46;;;;;;;3.47;1.60;;;;;;;;;;6091024;23;20020;-83
2022/08/23 12:59:32;;;;;;;3.20;1.40;;;;;;;;;;6118156;23;20010;-82
2022/08/23 13:01:57;;;;;;;3.53;1.20;;;;;;;;;;6091973;23;20021;-82
2022/08/23 13:04:23;;;;;;;4.68;1.38;;;;;;;;;;6092786;23;20542;-82
2022/08/23 13:06:57;;;;;;;3.95;1.20;;;;;;;;;;6093467;23;20068;-82
2022/08/23 13:09:29;;;;;;;4.20;1.27;;;;;;;;;;6093292;23;20026;-81
2022/08/23 13:11:56;;;;;;;3.67;1.10;;;;;;;;;;6118125;23;20125;-81
2022/08/23 13:14:26;;;;;;;3.20;1.10;;;;;;;;;;6093703;23;20401;-82
2022/08/23 13:16:52;;;;;;;3.53;1.25;;;;;;;;;;6091991;23;20014;-82
2022/08/23 13:19:23;;;;;;;2.97;1.13;;;;;;;;;;6093388;23;20017;-83
2022/08/23 13:22:18;;;;;;;4.40;1.30;;;;;;;;;;6117120;23;20014;-83
2022/08/23 13:24:56;;;;;;;3.58;1.30;;;;;;;;;;6093103;23;20132;-82
2022/08/23 13:27:25;;;;;;;4.25;1.05;;;;;;;;;;6116034;23;20462;-83
2022/08/23 13:30:18;;;;;;;3.95;0.95;;;;;;;;;;6093738;23;20013;-83
2022/08/23 13:33:07;;;;;;;4.45;1.30;;;;;;;;;;6091006;23;20399;-83
2022/08/23 13:35:35;;;;;;;2.72;1.00;;;;;;;;;;6095231;23;20013;-83
2022/08/23 13:38:06;;;;;;;3.95;1.90;;;;;;;;;;6117572;23;20400;-83
2022/08/23 13:40:39;;;;;;;3.90;1.13;;;;;;;;;;6116599;23;20018;-83
2022/08/23 13:43:07;;;;;;;3.90;1.05;;;;;;;;;;6092606;23;20411;-83
2022/08/23 13:45:34;;;;;;;4.13;1.00;;;;;;;;;;6092311;23;20065;-82
2022/08/23 13:48:13;;;;;;;;;;;;;;;;;;6094194;23;20466;-83
2022/08/23 13:50:39;;;;;;;3.38;1.30;;;;;;;;;;6068169;23;19917;-84
2022/08/23 13:53:05;;;;;;;4.53;1.00;;;;;;;;;;6068881;23;20030;-83
2022/08/23 13:55:33;;;;;;;2.83;1.02;;;;;;;;;;6068835;23;20450;-82
2022/08/23 13:57:59;;;;;;;2.75;1.15;;;;;;;;;;6068455;23;20465;-82
2022/08/23 14:00:25;;;;;;;2.80;1.00;;;;;;;;;;6068113;23;20010;-83
2022/08/23 14:02:51;;;;;;;4.65;1.10;;;;;;;;;;6067652;23;20032;-83
2022/08/23 14:05:20;;;;;;;3.17;1.20;;;;;;;;;;6068501;23;20085;-83
2022/08/23 14:07:47;;;;;;;3.40;1.17;;;;;;;;;;6068221;23;20556;-83
2022/08/23 14:10:14;;;;;;;5.75;1.40;;;;;;;;;;6067734;23;20018;-83
2022/08/23 14:12:42;;;;;;;3.20;1.10;;;;;;;;;;6092683;23;20018;-83
2022/08/23 14:15:08;;;;;;;2.88;1.08;;;;;;;;;;6068453;23;20084;-83
2022/08/23 14:17:39;;;;;;;2.95;1.10;;;;;;;;;;6067154;23;20022;-83
2022/08/23 14:20:07;;;;;;;3.92;1.40;;;;;;;;;;6068570;23;20359;-83
2022/08/23 14:22:32;;;;;;;2.97;1.25;;;;;;;;;;6067613;23;20022;-83
2022/08/23 14:24:58;;;;;;;4.30;1.10;;;;;;;;;;6068075;23;20020;-83
2022/08/23 14:27:27;;;;;;;4.13;1.10;;;;;;;;;;6092161;23;20022;-89
2022/08/23 14:29:53;;;;;;;2.80;1.02;;;;;;;;;;6091820;23;20117;-87
2022/08/23 14:32:18;;;;;;;3.95;1.15;;;;;;;;;;6067978;23;20914;-83
2022/08/23 14:34:44;;;;;;;5.20;1.10;;;;;;;;;;6068174;23;20096;-84
2022/08/23 14:37:09;;;;;;;3.75;1.15;;;;;;;;;;6068854;23;20018;-84
2022/08/23 14:39:34;;;;;;;4.88;1.25;;;;;;;;;;6069884;23;20025;-84
2022/08/23 14:42:01;;;;;;;6.85;1.30;;;;;;;;;;6069079;23;20020;-83
2022/08/23 14:44:26;;;;;;;4.30;1.37;;;;;;;;;;6070212;23;20022;-83
2022/08/23 14:46:52;;;;;;;4.85;1.30;;;;;;;;;;6069011;23;20304;-84
2022/08/23 14:49:19;;;;;;;3.63;1.30;;;;;;;;;;6081426;23;20022;-84
2022/08/23 14:51:47;;;;;;;4.82;1.63;;;;;;;;;;6094401;23;20014;-83
2022/08/23 14:54:35;;;;;;;3.17;1.40;;;;;;;;;;6093892;23;20093;-84
2022/08/23 14:57:00;;;;;;;4.63;1.50;;;;;;;;;;6028801;23;20035;-84
2022/08/23 14:59:26;;;;;;;2.95;1.20;;;;;;;;;;6030194;23;20019;-86
2022/08/23 15:01:52;;;;;;;4.00;1.40;;;;;;;;;;6005469;23;20019;-83
2022/08/23 15:04:19;;;;;;;4.45;1.40;;;;;;;;;;6006854;23;20023;-83
2022/08/23 15:06:45;;;;;;;4.15;1.50;;;;;;;;;;6006242;23;20023;-82
2022/08/23 15:09:10;;;;;;;3.70;1.50;;;;;;;;;;6006181;23;20027;-83
2022/08/23 15:11:35;;;;;;;2.85;1.35;;;;;;;;;;6005779;23;20035;-80